Time;durP1;ratioP1;P1;durP2;ratioP2;P2;SDS_P1;SDS_P2;PMS_P1;PMS_P2;Temp;Humidity;BMP_temperature;BMP_pressure;BME280_temperature;BME280_humidity;BME280_pressure;Samples;Min_cycle;Max_cycle;Signal;HPM_P1;HPM_P2
2021/10/11 00:02:02;;;;;;;31.27;28.37;;;6.00;99.90;;;;;;5053675;28;20851;-76
2021/10/11 00:04:28;;;;;;;31.13;28.23;;;6.00;99.90;;;;;;5053838;28;20455;-77
2021/10/11 00:06:56;;;;;;;33.63;30.37;;;6.00;99.90;;;;;;5053151;28;20509;-76
2021/10/11 00:09:22;;;;;;;32.10;29.00;;;5.90;99.90;;;;;;5053371;28;20455;-76
2021/10/11 00:11:50;;;;;;;34.07;31.07;;;5.90;99.90;;;;;;5053684;28;20459;-76
2021/10/11 00:14:17;;;;;;;33.73;30.87;;;5.90;99.90;;;;;;5053458;28;20812;-77
2021/10/11 00:16:44;;;;;;;33.80;30.80;;;5.90;99.90;;;;;;5053536;28;20490;-76
2021/10/11 00:19:11;;;;;;;30.83;28.13;;;5.80;99.90;;;;;;5053739;28;20459;-77
2021/10/11 00:21:37;;;;;;;33.40;30.03;;;5.80;99.90;;;;;;5053335;28;21046;-78
2021/10/11 00:24:05;;;;;;;32.27;29.30;;;5.80;99.90;;;;;;5053772;28;20461;-78
2021/10/11 00:26:31;;;;;;;33.50;30.23;;;5.80;99.90;;;;;;5054022;28;20448;-77
2021/10/11 00:28:59;;;;;;;34.90;31.87;;;5.80;99.90;;;;;;5053596;28;20454;-78
2021/10/11 00:31:26;;;;;;;32.10;29.50;;;5.80;99.90;;;;;;5053477;28;20459;-78
2021/10/11 00:33:53;;;;;;;31.30;28.33;;;5.80;99.90;;;;;;5053441;28;20527;-79
2021/10/11 00:36:19;;;;;;;31.83;29.20;;;5.80;99.90;;;;;;5053416;28;20940;-79
2021/10/11 00:38:46;;;;;;;32.00;29.40;;;5.90;99.90;;;;;;5052136;28;20459;-78
2021/10/11 00:41:13;;;;;;;32.27;29.30;;;5.90;99.90;;;;;;5052200;28;20514;-78
2021/10/11 00:43:41;;;;;;;32.80;30.20;;;5.90;99.90;;;;;;5052403;28;20459;-78
2021/10/11 00:46:09;;;;;;;33.10;30.20;;;5.90;99.90;;;;;;5052327;28;20455;-78
2021/10/11 00:48:36;;;;;;;31.50;28.20;;;5.90;99.90;;;;;;5052200;28;20453;-78
2021/10/11 00:51:05;;;;;;;31.80;29.10;;;5.90;99.90;;;;;;5052187;28;21068;-79
2021/10/11 00:53:32;;;;;;;35.10;31.73;;;5.90;99.90;;;;;;5051945;28;20453;-78
2021/10/11 00:55:59;;;;;;;32.43;29.57;;;5.80;99.90;;;;;;5051876;28;20487;-78
2021/10/11 00:58:26;;;;;;;33.37;30.23;;;5.80;99.90;;;;;;5051940;28;20473;-78
2021/10/11 01:00:54;;;;;;;32.33;29.33;;;5.80;99.90;;;;;;5052242;28;20456;-79
2021/10/11 01:03:22;;;;;;;35.00;31.50;;;5.80;99.90;;;;;;5052196;28;20452;-79
2021/10/11 01:05:49;;;;;;;32.37;29.27;;;5.70;99.90;;;;;;5051721;28;20458;-77
2021/10/11 01:08:16;;;;;;;34.83;31.63;;;5.70;99.90;;;;;;5051595;28;20812;-77
2021/10/11 01:10:45;;;;;;;33.63;30.60;;;5.70;99.90;;;;;;5051579;28;20459;-77
2021/10/11 01:13:12;;;;;;;31.87;29.07;;;5.70;99.90;;;;;;5051886;28;20911;-78
2021/10/11 01:15:39;;;;;;;33.53;30.53;;;5.70;99.90;;;;;;5051466;28;20446;-77
2021/10/11 01:18:06;;;;;;;32.23;28.73;;;5.70;99.90;;;;;;5051054;28;20459;-78
2021/10/11 01:20:34;;;;;;;29.87;27.53;;;5.60;99.90;;;;;;5051340;28;20499;-78
2021/10/11 01:23:01;;;;;;;32.80;30.13;;;5.60;99.90;;;;;;5051429;28;20456;-78
2021/10/11 01:25:27;;;;;;;35.10;32.00;;;5.60;99.90;;;;;;5051194;28;20454;-78
2021/10/11 01:27:54;;;;;;;32.43;29.60;;;5.60;99.90;;;;;;5051457;28;20455;-79
2021/10/11 01:30:21;;;;;;;32.03;29.17;;;5.60;99.90;;;;;;5051410;28;20608;-79
2021/10/11 01:32:47;;;;;;;31.43;28.73;;;5.50;99.90;;;;;;5050942;28;20488;-80
2021/10/11 01:35:15;;;;;;;31.00;28.30;;;5.50;99.90;;;;;;5051153;28;20947;-79
2021/10/11 01:37:44;;;;;;;32.43;29.40;;;5.50;99.90;;;;;;5051072;28;20497;-79
2021/10/11 01:40:11;;;;;;;33.23;30.20;;;5.50;99.90;;;;;;5051288;28;20535;-78
2021/10/11 01:42:38;;;;;;;32.10;29.30;;;5.40;99.90;;;;;;5051374;28;20455;-78
2021/10/11 01:45:07;;;;;;;33.37;30.47;;;5.40;99.90;;;;;;5051110;28;20450;-78
2021/10/11 01:47:34;;;;;;;32.03;29.10;;;5.40;99.90;;;;;;5050849;28;20537;-77
2021/10/11 01:50:01;;;;;;;31.53;28.70;;;5.40;99.90;;;;;;5050879;28;21038;-78
2021/10/11 01:52:28;;;;;;;32.67;29.40;;;5.30;99.90;;;;;;5050853;28;20461;-77
2021/10/11 01:54:56;;;;;;;34.00;31.00;;;5.30;99.90;;;;;;5050799;28;20935;-77
2021/10/11 01:57:22;;;;;;;32.40;29.53;;;5.30;99.90;;;;;;5050542;28;21057;-76
2021/10/11 01:59:49;;;;;;;34.30;31.10;;;5.30;99.90;;;;;;5051040;28;20472;-77
2021/10/11 02:02:16;;;;;;;33.93;30.70;;;5.30;99.90;;;;;;5050758;28;20455;-76
2021/10/11 02:04:42;;;;;;;35.37;32.07;;;5.30;99.90;;;;;;5050562;28;20454;-77
2021/10/11 02:07:09;;;;;;;33.53;30.50;;;5.30;99.90;;;;;;5050424;28;20456;-78
2021/10/11 02:09:36;;;;;;;33.97;30.70;;;5.30;99.90;;;;;;5050868;28;20459;-77
2021/10/11 02:12:04;;;;;;;36.40;33.23;;;5.20;99.90;;;;;;5050664;28;20461;-77
2021/10/11 02:14:31;;;;;;;34.57;30.97;;;5.30;99.90;;;;;;5050609;28;20457;-77
2021/10/11 02:16:58;;;;;;;34.17;30.97;;;5.20;99.90;;;;;;5050524;28;20878;-78
2021/10/11 02:19:25;;;;;;;33.77;30.87;;;5.20;99.90;;;;;;5050169;28;20497;-78
2021/10/11 02:21:52;;;;;;;33.83;30.60;;;5.20;99.90;;;;;;5050472;28;20452;-79
2021/10/11 02:24:18;;;;;;;33.87;30.67;;;5.30;99.90;;;;;;5050706;28;20818;-78
2021/10/11 02:26:45;;;;;;;34.67;31.53;;;5.20;99.90;;;;;;5050426;28;20453;-78
2021/10/11 02:29:13;;;;;;;35.23;32.10;;;5.20;99.90;;;;;;5050423;28;20462;-79
2021/10/11 02:31:40;;;;;;;32.70;29.70;;;5.10;99.90;;;;;;5050260;28;20460;-78
2021/10/11 02:34:07;;;;;;;34.13;30.90;;;5.10;99.90;;;;;;5050083;28;20481;-79
2021/10/11 02:36:33;;;;;;;32.80;29.90;;;5.10;99.90;;;;;;5050285;28;20483;-80
2021/10/11 02:39:00;;;;;;;34.73;31.50;;;5.00;99.90;;;;;;5050241;28;20967;-79
2021/10/11 02:41:27;;;;;;;34.97;31.37;;;5.10;99.90;;;;;;5050344;28;20472;-79
2021/10/11 02:43:53;;;;;;;32.93;30.17;;;5.00;99.90;;;;;;5050229;28;20475;-79
2021/10/11 02:46:21;;;;;;;32.73;29.83;;;5.10;99.90;;;;;;5050442;28;20455;-79
2021/10/11 02:48:48;;;;;;;34.27;30.80;;;5.00;99.90;;;;;;5050623;28;20448;-78
2021/10/11 02:51:15;;;;;;;32.33;29.37;;;5.00;99.90;;;;;;5050235;28;20463;-79
2021/10/11 02:53:41;;;;;;;34.93;31.60;;;5.00;99.90;;;;;;5050066;28;20459;-78
2021/10/11 02:56:08;;;;;;;34.40;31.40;;;5.00;99.90;;;;;;5049701;28;20956;-78
2021/10/11 02:58:35;;;;;;;35.00;31.70;;;5.10;99.90;;;;;;5050335;28;20455;-77
2021/10/11 03:01:01;;;;;;;35.00;31.80;;;5.00;99.90;;;;;;5050416;28;20455;-78
2021/10/11 03:03:29;;;;;;;33.93;30.80;;;5.00;99.90;;;;;;5049891;28;20458;-78
2021/10/11 03:05:56;;;;;;;34.50;31.60;;;5.00;99.90;;;;;;5051470;28;20452;-78
2021/10/11 03:08:23;;;;;;;35.77;32.50;;;5.00;99.90;;;;;;5051712;28;20721;-77
2021/10/11 03:10:49;;;;;;;33.97;30.83;;;5.00;99.90;;;;;;5051999;28;20568;-77
2021/10/11 03:13:16;;;;;;;35.40;32.20;;;4.90;99.90;;;;;;5049949;28;20991;-78
2021/10/11 03:15:43;;;;;;;33.57;30.30;;;4.90;99.90;;;;;;5049839;28;20462;-78
2021/10/11 03:18:10;;;;;;;34.70;31.50;;;5.00;99.90;;;;;;5049794;28;20501;-79
2021/10/11 03:20:38;;;;;;;35.50;32.30;;;4.90;99.90;;;;;;5050155;28;20465;-78
2021/10/11 03:23:04;;;;;;;34.17;31.37;;;4.90;99.90;;;;;;5049832;28;20530;-79
2021/10/11 03:25:31;;;;;;;34.93;31.50;;;4.90;99.90;;;;;;5049847;28;20940;-79
2021/10/11 03:27:58;;;;;;;36.40;32.90;;;4.90;99.90;;;;;;5049812;28;20458;-79
2021/10/11 03:30:24;;;;;;;36.67;32.67;;;4.90;99.90;;;;;;5049973;28;20464;-78
2021/10/11 03:32:51;;;;;;;38.13;34.20;;;4.90;99.90;;;;;;5049854;28;20483;-79
2021/10/11 03:35:20;;;;;;;35.20;31.80;;;4.80;99.90;;;;;;5050072;28;20449;-78
2021/10/11 03:37:48;;;;;;;35.67;31.97;;;4.80;99.90;;;;;;5049740;28;20491;-78
2021/10/11 03:40:14;;;;;;;35.77;32.57;;;4.80;99.90;;;;;;5050062;28;20455;-81
2021/10/11 03:42:41;;;;;;;37.40;33.50;;;4.80;99.90;;;;;;5053404;28;20515;-80
2021/10/11 03:45:09;;;;;;;35.77;32.07;;;4.80;99.90;;;;;;5053316;28;20467;-81
2021/10/11 03:47:37;;;;;;;31.13;28.53;;;4.80;99.90;;;;;;5053311;28;20447;-80
2021/10/11 03:50:04;;;;;;;34.73;30.93;;;4.80;99.90;;;;;;5053633;28;20563;-80
2021/10/11 03:52:31;;;;;;;32.07;29.33;;;4.70;99.90;;;;;;5053444;28;20447;-80
2021/10/11 03:54:59;;;;;;;35.70;31.40;;;4.70;99.90;;;;;;5053027;28;20448;-79
2021/10/11 03:57:26;;;;;;;36.50;32.93;;;4.60;99.90;;;;;;5052811;28;20492;-78
2021/10/11 03:59:52;;;;;;;34.17;30.97;;;4.60;99.90;;;;;;5053122;28;20444;-79
2021/10/11 04:02:19;;;;;;;35.37;32.10;;;4.60;99.90;;;;;;5052850;28;20865;-81
2021/10/11 04:04:46;;;;;;;36.13;32.63;;;4.60;99.90;;;;;;5052944;28;20453;-81
2021/10/11 04:07:17;;;;;;;32.33;29.10;;;4.60;99.90;;;;;;5052958;28;20452;-83
2021/10/11 04:09:45;;;;;;;35.33;32.10;;;4.60;99.90;;;;;;5052869;28;20443;-79
2021/10/11 04:12:19;;;;;;;33.50;30.50;;;4.60;99.90;;;;;;5052859;28;20450;-76
2021/10/11 04:14:45;;;;;;;34.57;31.40;;;4.60;99.90;;;;;;5052797;28;20541;-76
2021/10/11 04:17:12;;;;;;;34.27;31.03;;;4.60;99.90;;;;;;5052365;28;20848;-76
2021/10/11 04:19:39;;;;;;;34.07;31.17;;;4.60;99.90;;;;;;5052549;28;20473;-78
2021/10/11 04:22:06;;;;;;;35.40;32.20;;;4.60;99.90;;;;;;5052898;28;20454;-78
2021/10/11 04:24:32;;;;;;;33.33;30.37;;;4.60;99.90;;;;;;5052632;28;20443;-79
2021/10/11 04:26:59;;;;;;;34.43;31.23;;;4.60;99.90;;;;;;5052224;28;20458;-78
2021/10/11 04:29:27;;;;;;;34.40;31.30;;;4.60;99.90;;;;;;5052675;28;20785;-79
2021/10/11 04:31:54;;;;;;;36.60;32.97;;;4.60;99.90;;;;;;5052350;28;20440;-77
2021/10/11 04:34:20;;;;;;;37.60;34.10;;;4.60;99.90;;;;;;5052281;28;20483;-77
2021/10/11 04:36:47;;;;;;;37.57;33.83;;;4.60;99.90;;;;;;5052545;28;20946;-77
2021/10/11 04:39:14;;;;;;;33.87;31.00;;;4.60;99.90;;;;;;5052212;28;20460;-77
2021/10/11 04:41:40;;;;;;;33.17;30.17;;;4.60;99.90;;;;;;5052200;28;20448;-76
2021/10/11 04:44:07;;;;;;;32.63;29.40;;;4.60;99.90;;;;;;5052130;28;20441;-77
2021/10/11 04:46:35;;;;;;;35.47;32.27;;;4.50;99.90;;;;;;5052543;28;20448;-76
2021/10/11 04:49:02;;;;;;;34.57;31.30;;;4.60;99.90;;;;;;5051973;28;20458;-76
2021/10/11 04:51:29;;;;;;;33.70;30.40;;;4.50;99.90;;;;;;5052040;28;20475;-77
2021/10/11 04:53:55;;;;;;;34.93;31.73;;;4.40;99.90;;;;;;5052431;28;20958;-77
2021/10/11 04:56:22;;;;;;;34.37;31.20;;;4.40;99.90;;;;;;5052386;28;20472;-76
2021/10/11 04:58:49;;;;;;;35.50;32.27;;;4.40;99.90;;;;;;5052339;28;20490;-77
2021/10/11 05:01:16;;;;;;;34.77;31.50;;;4.40;99.90;;;;;;5051851;28;20451;-76
2021/10/11 05:03:44;;;;;;;34.87;30.37;;;4.30;99.90;;;;;;5052489;28;20513;-78
2021/10/11 05:06:11;;;;;;;37.07;33.23;;;4.30;99.90;;;;;;5052118;28;20455;-79
2021/10/11 05:08:38;;;;;;;37.10;33.73;;;4.30;99.90;;;;;;5052186;28;20459;-78
2021/10/11 05:11:04;;;;;;;34.23;31.27;;;4.30;99.90;;;;;;5052106;28;20447;-78
2021/10/11 05:13:31;;;;;;;34.07;31.17;;;4.30;99.90;;;;;;5052193;28;20488;-79
2021/10/11 05:15:59;;;;;;;34.33;30.73;;;4.30;99.90;;;;;;5052124;28;20954;-78
2021/10/11 05:18:26;;;;;;;37.20;33.27;;;4.30;99.90;;;;;;5051776;28;20487;-78
2021/10/11 05:20:57;;;;;;;36.27;32.90;;;4.30;99.90;;;;;;5051572;28;20475;-79
2021/10/11 05:23:24;;;;;;;37.37;33.60;;;4.30;99.90;;;;;;5051741;28;20471;-78
2021/10/11 05:25:51;;;;;;;37.97;34.20;;;4.20;99.90;;;;;;5051968;28;20443;-78
2021/10/11 05:28:18;;;;;;;36.13;32.60;;;4.20;99.90;;;;;;5051466;28;20458;-77
2021/10/11 05:30:44;;;;;;;39.23;35.27;;;4.20;99.90;;;;;;5051917;28;20455;-77
2021/10/11 05:33:12;;;;;;;40.90;34.37;;;4.20;99.90;;;;;;5051288;28;20485;-78
2021/10/11 05:35:38;;;;;;;40.57;32.20;;;4.20;99.90;;;;;;5051636;28;20473;-77
2021/10/11 05:38:07;;;;;;;36.27;32.80;;;4.20;99.90;;;;;;5051740;28;20492;-77
2021/10/11 05:40:33;;;;;;;39.10;35.23;;;4.10;99.90;;;;;;5051356;28;20452;-78
2021/10/11 05:43:00;;;;;;;37.47;33.63;;;4.10;99.90;;;;;;5051107;28;20490;-78
2021/10/11 05:45:27;;;;;;;36.63;32.93;;;4.10;99.90;;;;;;5050992;28;20463;-77
2021/10/11 05:47:54;;;;;;;37.00;33.10;;;4.10;99.90;;;;;;5050902;28;20943;-79
2021/10/11 05:50:20;;;;;;;35.50;31.50;;;4.00;99.90;;;;;;5051385;28;20490;-78
2021/10/11 05:52:47;;;;;;;34.83;31.33;;;4.00;99.90;;;;;;5050996;28;20463;-78
2021/10/11 05:55:15;;;;;;;37.37;34.07;;;4.00;99.90;;;;;;5050663;28;20448;-78
2021/10/11 05:57:42;;;;;;;58.40;35.87;;;4.10;99.90;;;;;;5051051;28;20494;-78
2021/10/11 06:00:10;;;;;;;41.00;34.97;;;4.10;99.90;;;;;;5050791;28;20448;-78
2021/10/11 06:02:37;;;;;;;37.83;34.10;;;4.10;99.90;;;;;;5050964;28;20452;-79
2021/10/11 06:05:05;;;;;;;43.57;36.43;;;4.20;99.90;;;;;;5050527;28;20446;-78
2021/10/11 06:07:31;;;;;;;40.50;36.50;;;4.20;99.90;;;;;;5050727;28;20843;-77
2021/10/11 06:09:59;;;;;;;39.20;35.10;;;4.20;99.90;;;;;;5050627;28;20460;-77
2021/10/11 06:12:27;;;;;;;39.43;35.33;;;4.30;99.90;;;;;;5050674;28;20956;-77
2021/10/11 06:14:54;;;;;;;36.67;33.37;;;4.30;99.90;;;;;;5050676;28;20447;-79
2021/10/11 06:17:21;;;;;;;41.67;37.77;;;4.40;99.90;;;;;;5050710;28;20537;-78
2021/10/11 06:19:48;;;;;;;38.63;35.00;;;4.60;99.90;;;;;;5050478;28;20471;-78
2021/10/11 06:22:14;;;;;;;37.07;33.30;;;4.80;99.90;;;;;;5050379;28;20452;-77
2021/10/11 06:24:41;;;;;;;36.23;32.67;;;5.10;99.90;;;;;;5050611;28;20463;-77
2021/10/11 06:27:08;;;;;;;34.77;31.27;;;5.30;99.90;;;;;;5050432;28;20628;-78
2021/10/11 06:29:36;;;;;;;35.63;30.77;;;5.40;99.90;;;;;;5050747;28;20459;-78
2021/10/11 06:32:03;;;;;;;34.50;31.00;;;5.60;99.90;;;;;;5050498;28;20455;-78
2021/10/11 06:34:29;;;;;;;32.37;29.07;;;5.70;99.90;;;;;;5049877;28;20482;-76
2021/10/11 06:36:56;;;;;;;32.90;29.70;;;5.80;99.90;;;;;;5050414;28;20449;-77
2021/10/11 06:39:23;;;;;;;32.97;29.67;;;5.90;99.90;;;;;;5050364;28;20993;-77
2021/10/11 06:41:50;;;;;;;45.33;31.00;;;6.10;99.90;;;;;;5050622;28;20560;-76
2021/10/11 06:44:17;;;;;;;32.80;29.53;;;6.10;99.90;;;;;;5050302;28;20449;-77
2021/10/11 06:46:45;;;;;;;30.07;27.07;;;6.10;99.90;;;;;;5050356;28;20441;-77
2021/10/11 06:49:12;;;;;;;31.00;28.10;;;6.20;99.90;;;;;;5050266;28;20454;-76
2021/10/11 06:51:39;;;;;;;28.93;26.23;;;6.30;99.90;;;;;;5049960;28;20448;-76
2021/10/11 06:54:05;;;;;;;31.23;28.10;;;6.40;99.90;;;;;;5050408;28;20458;-75
2021/10/11 06:56:32;;;;;;;30.00;27.07;;;6.60;99.90;;;;;;5050255;28;20464;-75
2021/10/11 06:58:59;;;;;;;32.23;28.90;;;6.60;99.90;;;;;;5050119;28;20484;-75
2021/10/11 07:01:26;;;;;;;29.13;26.40;;;6.70;99.90;;;;;;5050166;28;20444;-74
2021/10/11 07:03:55;;;;;;;29.73;26.80;;;6.90;99.90;;;;;;5049743;28;20496;-76
2021/10/11 07:06:22;;;;;;;30.30;27.30;;;7.30;99.90;;;;;;5050175;28;20463;-75
2021/10/11 07:08:49;;;;;;;27.57;24.97;;;7.50;99.90;;;;;;5050122;28;20449;-76
2021/10/11 07:11:15;;;;;;;27.77;25.30;;;7.60;99.90;;;;;;5050132;28;20444;-74
2021/10/11 07:13:42;;;;;;;27.50;24.60;;;7.70;99.90;;;;;;5050128;28;20459;-75
2021/10/11 07:16:09;;;;;;;27.03;24.43;;;8.00;99.90;;;;;;5051798;28;20463;-77
2021/10/11 07:18:37;;;;;;;27.17;24.30;;;8.40;99.90;;;;;;5053974;28;20521;-72
2021/10/11 07:21:08;;;;;;;23.30;21.30;;;8.70;99.90;;;;;;5053694;28;20590;-78
2021/10/11 07:23:35;;;;;;;25.63;23.03;;;8.90;99.90;;;;;;5057771;28;20484;-77
2021/10/11 07:26:04;;;;;;;28.53;25.50;;;8.80;99.90;;;;;;5071309;28;20455;-78
2021/10/11 07:28:31;;;;;;;30.40;23.07;;;8.80;99.90;;;;;;5053565;28;20833;-79
2021/10/11 07:30:58;;;;;;;28.60;25.47;;;9.10;99.90;;;;;;5061206;28;20446;-79
2021/10/11 07:33:25;;;;;;;25.07;22.60;;;9.40;99.90;;;;;;5073512;28;20497;-82
2021/10/11 07:35:52;;;;;;;25.23;23.10;;;9.60;99.90;;;;;;5073788;28;20456;-77
2021/10/11 07:38:21;;;;;;;23.40;21.50;;;9.50;99.90;;;;;;5073703;28;20498;-78
2021/10/11 07:40:48;;;;;;;25.13;22.40;;;9.10;99.90;;;;;;5055468;28;20440;-78
2021/10/11 07:43:14;;;;;;;25.50;23.07;;;9.00;99.90;;;;;;5053893;28;20451;-77
2021/10/11 07:45:41;;;;;;;23.73;21.33;;;9.00;99.90;;;;;;5055089;28;20728;-76
2021/10/11 07:48:08;;;;;;;25.83;23.63;;;9.10;99.90;;;;;;5054778;28;20444;-77
2021/10/11 07:50:34;;;;;;;25.70;23.40;;;9.20;99.90;;;;;;5054057;28;20460;-77
2021/10/11 07:53:01;;;;;;;25.77;23.57;;;9.40;99.90;;;;;;5053000;28;20452;-78
2021/10/11 07:55:29;;;;;;;32.47;23.97;;;9.80;99.90;;;;;;5053225;28;20467;-77
2021/10/11 07:57:56;;;;;;;25.53;23.47;;;10.10;99.90;;;;;;5071872;28;20470;-77
2021/10/11 08:00:24;;;;;;;25.50;23.30;;;10.20;99.90;;;;;;5073210;28;20451;-77
2021/10/11 08:02:51;;;;;;;24.97;22.70;;;10.50;99.90;;;;;;5073610;28;20981;-76
2021/10/11 08:05:18;;;;;;;23.40;21.57;;;11.00;99.90;;;;;;5073160;28;20530;-77
2021/10/11 08:07:45;;;;;;;25.77;23.60;;;11.20;99.90;;;;;;5072925;28;20466;-76
2021/10/11 08:10:13;;;;;;;25.17;22.90;;;11.30;99.90;;;;;;5073094;28;20443;-77
2021/10/11 08:12:41;;;;;;;23.27;21.37;;;11.40;99.90;;;;;;5072963;28;20483;-78
2021/10/11 08:15:09;;;;;;;25.80;23.67;;;11.40;99.90;;;;;;5072933;28;20455;-74
2021/10/11 08:17:35;;;;;;;27.13;24.83;;;11.30;99.90;;;;;;5073024;28;20451;-77
2021/10/11 08:20:02;;;;;;;26.17;23.73;;;11.10;99.90;;;;;;5072732;28;20491;-77
2021/10/11 08:22:29;;;;;;;27.73;25.40;;;11.00;99.90;;;;;;5072861;28;20841;-76
2021/10/11 08:24:56;;;;;;;26.73;24.43;;;10.70;99.90;;;;;;5072763;28;20454;-77
2021/10/11 08:27:22;;;;;;;27.13;24.93;;;10.80;99.90;;;;;;5072329;28;20446;-77
2021/10/11 08:29:52;;;;;;;25.83;23.30;;;11.00;99.90;;;;;;5072939;28;20963;-74
2021/10/11 08:32:19;;;;;;;26.47;24.57;;;11.60;99.90;;;;;;5073045;28;20964;-78
2021/10/11 08:34:45;;;;;;;24.80;22.70;;;12.20;99.90;;;;;;5072426;28;20443;-74
2021/10/11 08:37:12;;;;;;;25.23;23.23;;;12.80;99.90;;;;;;5074715;28;20975;-77
2021/10/11 08:39:39;;;;;;;24.40;22.50;;;12.60;99.90;;;;;;5073582;28;21000;-74
2021/10/11 08:42:06;;;;;;;23.43;21.60;;;12.90;99.90;;;;;;5072651;28;20473;-75
2021/10/11 08:44:33;;;;;;;26.47;24.27;;;13.30;99.90;;;;;;5072711;28;20447;-74
2021/10/11 08:47:02;;;;;;;23.60;21.80;;;14.00;99.90;;;;;;5072479;28;20451;-76
2021/10/11 08:49:30;;;;;;;25.13;23.10;;;14.60;99.90;;;;;;5072287;28;20483;-76
2021/10/11 08:51:56;;;;;;;26.13;24.20;;;15.30;99.20;;;;;;5072357;28;20451;-76
2021/10/11 08:54:23;;;;;;;26.53;24.27;;;15.90;97.50;;;;;;5072064;28;20451;-77
2021/10/11 08:56:50;;;;;;;26.37;24.10;;;16.30;96.40;;;;;;5064005;28;20444;-76
2021/10/11 08:59:28;;;;;;;26.70;24.47;;;16.80;95.30;;;;;;5052258;28;20594;-76
2021/10/11 09:02:03;;;;;;;24.90;22.97;;;16.60;95.00;;;;;;5051817;28;20455;-77
2021/10/11 09:04:30;;;;;;;27.03;24.93;;;16.70;94.90;;;;;;5052169;28;20452;-77
2021/10/11 09:07:04;;;;;;;27.37;25.03;;;16.70;94.80;;;;;;5052086;28;20448;-77
2021/10/11 09:09:31;;;;;;;26.77;24.60;;;16.50;95.20;;;;;;5051651;28;20452;-78
2021/10/11 09:11:58;;;;;;;26.87;24.33;;;16.70;94.50;;;;;;5051803;28;20455;-77
2021/10/11 09:14:25;;;;;;;26.57;24.07;;;17.30;94.60;;;;;;5051740;28;20455;-77
2021/10/11 09:17:00;;;;;;;27.67;25.57;;;17.50;93.30;;;;;;5051878;28;20444;-78
2021/10/11 09:19:34;;;;;;;26.17;24.00;;;17.80;92.60;;;;;;5051400;28;20482;-78
2021/10/11 09:22:01;;;;;;;29.17;26.47;;;17.80;92.00;;;;;;5051277;28;20459;-78
2021/10/11 09:24:29;;;;;;;27.50;25.20;;;17.80;92.30;;;;;;5051219;28;20456;-77
2021/10/11 09:26:58;;;;;;;27.37;25.17;;;17.60;92.20;;;;;;5051297;28;20456;-78
2021/10/11 09:29:31;;;;;;;26.50;24.30;;;17.70;92.60;;;;;;5051693;28;20555;-77
2021/10/11 09:32:03;;;;;;;27.90;25.17;;;18.10;91.80;;;;;;5051253;28;20864;-78
2021/10/11 09:34:32;;;;;;;27.33;25.03;;;18.20;91.90;;;;;;5051077;28;20483;-77
2021/10/11 09:37:03;;;;;;;27.43;25.10;;;18.60;91.30;;;;;;5051165;28;20962;-77
2021/10/11 09:39:32;;;;;;;28.67;25.90;;;19.00;90.80;;;;;;5050446;28;20480;-77
2021/10/11 09:42:00;;;;;;;28.00;25.57;;;20.00;88.30;;;;;;5051266;28;20455;-77
2021/10/11 09:44:28;;;;;;;26.80;24.80;;;19.80;86.30;;;;;;5051273;28;20467;-77
2021/10/11 09:46:57;;;;;;;27.57;25.07;;;19.40;87.90;;;;;;5051035;28;20471;-77
2021/10/11 09:49:25;;;;;;;25.10;23.20;;;19.90;86.10;;;;;;5050965;28;20497;-78
2021/10/11 09:51:53;;;;;;;24.90;23.20;;;20.50;83.80;;;;;;5051036;28;20887;-77
2021/10/11 09:54:22;;;;;;;26.70;24.70;;;21.10;82.30;;;;;;5051289;28;20543;-77
2021/10/11 09:56:49;;;;;;;27.23;25.10;;;21.30;80.70;;;;;;5051184;28;20452;-78
2021/10/11 09:59:17;;;;;;;26.90;24.43;;;21.40;80.00;;;;;;5050644;28;20507;-76
2021/10/11 10:01:46;;;;;;;26.07;24.03;;;21.90;77.90;;;;;;5050765;28;20492;-77
2021/10/11 10:04:15;;;;;;;28.30;25.90;;;22.10;77.00;;;;;;5050821;28;20458;-77
2021/10/11 10:06:42;;;;;;;27.60;25.50;;;22.80;74.90;;;;;;5050642;28;20478;-76
2021/10/11 10:09:11;;;;;;;27.30;25.33;;;23.70;72.60;;;;;;5059381;28;20467;-77
2021/10/11 10:11:39;;;;;;;26.17;24.37;;;23.50;72.30;;;;;;5070707;28;20549;-77
2021/10/11 10:14:08;;;;;;;28.43;26.30;;;24.40;68.80;;;;;;5070646;28;20814;-77
2021/10/11 10:16:36;;;;;;;28.30;25.93;;;24.80;65.30;;;;;;5070917;28;20475;-76
2021/10/11 10:19:10;;;;;;;28.33;26.53;;;24.50;64.70;;;;;;5070589;28;20515;-78
2021/10/11 10:21:39;;;;;;;27.80;26.00;;;24.10;65.20;;;;;;5070534;28;20479;-78
2021/10/11 10:24:07;;;;;;;28.00;26.20;;;23.80;65.80;;;;;;5053504;28;20965;-78
2021/10/11 10:26:35;;;;;;;27.53;25.60;;;23.80;65.40;;;;;;5050572;28;20510;-78
2021/10/11 10:29:14;;;;;;;30.23;27.43;;;24.30;63.60;;;;;;5050484;28;20480;-78
2021/10/11 10:31:41;;;;;;;28.63;26.50;;;24.40;61.60;;;;;;5050734;28;20479;-78
2021/10/11 10:34:16;;;;;;;31.37;28.63;;;24.70;62.30;;;;;;5050319;28;20490;-77
2021/10/11 10:36:44;;;;;;;28.17;25.97;;;25.00;61.10;;;;;;5050545;28;20451;-76
2021/10/11 10:39:12;;;;;;;27.13;25.10;;;25.00;61.70;;;;;;5050520;28;20484;-75
2021/10/11 10:41:42;;;;;;;29.00;26.87;;;24.80;59.90;;;;;;5050594;28;20462;-75
2021/10/11 10:44:16;;;;;;;30.30;27.90;;;25.30;59.70;;;;;;5048267;28;20953;-75
2021/10/11 10:46:54;;;;;;;29.87;27.57;;;25.50;59.00;;;;;;5050115;28;20459;-75
2021/10/11 10:49:29;;;;;;;27.97;25.60;;;24.40;61.20;;;;;;5051357;28;20487;-75
2021/10/11 10:51:56;;;;;;;29.20;26.97;;;24.70;60.10;;;;;;5054955;28;20447;-74
2021/10/11 10:54:33;;;;;;;28.43;26.53;;;25.10;59.70;;;;;;5055122;28;20448;-75
2021/10/11 10:57:00;;;;;;;28.30;26.50;;;26.40;57.20;;;;;;5053101;28;20480;-75
2021/10/11 10:59:35;;;;;;;28.27;26.23;;;26.00;56.00;;;;;;5054472;28;20885;-75
2021/10/11 11:02:04;;;;;;;30.67;28.33;;;24.90;57.60;;;;;;5052799;28;20886;-75
2021/10/11 11:04:30;;;;;;;29.77;27.87;;;24.90;57.90;;;;;;5053644;28;20470;-75
2021/10/11 11:07:04;;;;;;;30.47;28.27;;;24.60;58.70;;;;;;5054422;28;20467;-75
2021/10/11 11:09:42;;;;;;;30.67;28.23;;;24.90;59.00;;;;;;5057634;28;20525;-75
2021/10/11 11:12:09;;;;;;;31.93;29.20;;;24.70;59.70;;;;;;5074648;28;20458;-76
2021/10/11 11:14:37;;;;;;;30.90;28.30;;;24.10;59.40;;;;;;5074571;28;20448;-75
2021/10/11 11:17:05;;;;;;;29.07;26.97;;;23.90;60.20;;;;;;5074458;28;20451;-75
2021/10/11 11:19:40;;;;;;;31.93;29.10;;;24.20;61.10;;;;;;5074135;28;20855;-76
2021/10/11 11:22:07;;;;;;;29.97;27.60;;;24.20;60.90;;;;;;5073734;28;20466;-76
2021/10/11 11:24:35;;;;;;;30.40;27.93;;;23.80;62.00;;;;;;5074344;28;20442;-76
2021/10/11 11:27:02;;;;;;;31.30;28.67;;;24.50;60.50;;;;;;5074216;28;20494;-76
2021/10/11 11:29:30;;;;;;;29.07;26.87;;;24.50;59.10;;;;;;5074054;28;20507;-76
2021/10/11 11:31:58;;;;;;;28.13;26.13;;;24.40;59.30;;;;;;5074168;28;20965;-76
2021/10/11 11:34:26;;;;;;;29.37;27.07;;;23.60;60.40;;;;;;5073905;28;20475;-75
2021/10/11 11:36:55;;;;;;;29.30;27.03;;;23.00;62.50;;;;;;5074130;28;20870;-75
2021/10/11 11:39:22;;;;;;;29.80;27.23;;;22.40;63.60;;;;;;5074066;28;20510;-75
2021/10/11 11:41:53;;;;;;;28.37;26.30;;;22.50;64.10;;;;;;5074275;28;20459;-74
2021/10/11 11:44:24;;;;;;;29.73;27.43;;;22.80;64.80;;;;;;5074024;28;20473;-76
2021/10/11 11:47:04;;;;;;;29.93;27.40;;;22.90;63.10;;;;;;5074063;28;20455;-75
2021/10/11 11:49:34;;;;;;;30.10;27.67;;;23.10;63.30;;;;;;5073677;28;20488;-75
2021/10/11 11:52:07;;;;;;;30.70;28.10;;;23.30;63.00;;;;;;5073880;28;20467;-75
2021/10/11 11:54:33;;;;;;;28.87;26.53;;;23.20;63.00;;;;;;5074009;28;20450;-74
2021/10/11 11:57:00;;;;;;;30.13;27.73;;;23.10;64.00;;;;;;5073504;28;20447;-75
2021/10/11 11:59:28;;;;;;;28.90;26.77;;;23.00;63.10;;;;;;5073436;28;20490;-74
2021/10/11 12:01:56;;;;;;;28.97;26.90;;;23.40;63.30;;;;;;5072742;28;20479;-75
2021/10/11 12:04:24;;;;;;;28.43;26.33;;;23.40;62.70;;;;;;5073563;28;20508;-74
2021/10/11 12:06:51;;;;;;;28.63;26.43;;;23.90;61.40;;;;;;5073516;28;20443;-75
2021/10/11 12:09:21;;;;;;;28.50;26.30;;;24.20;60.60;;;;;;5073429;28;20443;-74
2021/10/11 12:11:49;;;;;;;27.33;25.03;;;23.20;61.00;;;;;;5073356;28;20451;-74
2021/10/11 12:14:26;;;;;;;27.00;24.97;;;24.00;61.30;;;;;;5073261;28;20447;-75
2021/10/11 12:17:04;;;;;;;27.50;25.23;;;24.60;59.20;;;;;;5073074;28;20447;-75
2021/10/11 12:19:36;;;;;;;26.03;24.23;;;23.70;60.70;;;;;;5073116;28;20478;-75
2021/10/11 12:22:04;;;;;;;28.47;25.93;;;23.30;62.40;;;;;;5073162;28;20488;-74
2021/10/11 12:24:35;;;;;;;26.93;24.73;;;22.70;62.00;;;;;;5072888;28;20455;-75
2021/10/11 12:27:04;;;;;;;26.50;24.63;;;23.40;61.40;;;;;;5073310;28;20457;-76
2021/10/11 12:29:33;;;;;;;26.30;24.20;;;23.60;62.10;;;;;;5073497;28;20435;-75
2021/10/11 12:32:02;;;;;;;26.03;24.33;;;24.30;61.30;;;;;;5073480;28;20443;-75
2021/10/11 12:34:31;;;;;;;28.20;26.00;;;24.20;61.00;;;;;;5073438;28;21046;-76
2021/10/11 12:37:01;;;;;;;28.57;26.13;;;24.30;60.10;;;;;;5073754;28;20478;-76